TJNR/NRR METAR and TAF weather

Enter ICAO airport designator
Station Type Date Time Source
TJNR METAR 2020/07/15 00:53 UTC NOAA

TJNR 150053Z AUTO 04008KT 10SM FEW025 FEW041 BKN060 29/23 A3004 RMK AO2 SLP173 T02890233


Station Type Date Time Source
TJNR Decoded METAR 2020/07/15 00:53 UTC NOAA

ROOSEVELT ROADS PUERTO RICO, PR, United States (TJNR) 18-15N 65-38W 10M
Jul 14, 2020 - 08:53 PM EDT / 2020.07.15 0053 UTC
Wind: from the NE (040 degrees) at 9 MPH (8 KT):0
Visibility: 10 mile(s):0
Sky conditions: mostly cloudy
Temperature: 84.0 F (28.9 C)
Dew Point: 73.9 F (23.3 C)
Relative Humidity: 71%
Pressure (altimeter): 30.04 in. Hg (1017 hPa)
ob: TJNR 150053Z AUTO 04008KT 10SM FEW025 FEW041 BKN060 29/23 A3004 RMK AO2 SLP173 T02890233
cycle: 1

Station Type Date Time Source
TJNR TAF UTC NOAA

Error!

Example: see airport list